Sunday, September 25, 2016, 11:37 AM EDT

KTHV, York Airport

Location: Spring Grove, PA, United States Lat: 39.917
Local Time: 11:37 AM EDT (15:37 GMT) Lon: -76.883
Time Zone: US/Eastern Elev: 478 ft

Show me the last for .
Show Decoded

2016-09-25 10:53 METAR KTHV 251453Z AUTO 03005KT 10SM CLR 17/08 A3024 RMK AO2 SLP243 T01720078
                 51003 =
2016-09-25 09:53 METAR KTHV 251353Z AUTO 03004KT 10SM CLR 16/08 A3024 RMK AO2 SLP243 T01560078 =
2016-09-25 08:53 METAR KTHV 251253Z AUTO 00000KT 10SM CLR 12/10 A3024 RMK AO2 SLP241 T01220100 =
2016-09-25 07:53 METAR KTHV 251153Z AUTO 00000KT 10SM CLR 08/08 A3023 RMK AO2 SLP241 T00830083
                 10083 20050 51010 =
2016-09-25 06:53 METAR KTHV 251053Z AUTO 00000KT 10SM CLR 05/05 A3023 RMK AO2 SLP238 T00500050 =
2016-09-25 05:53 METAR KTHV 250953Z AUTO 00000KT 10SM CLR 06/06 A3022 RMK AO2 SLP236 T00610061 =
2016-09-25 04:53 METAR KTHV 250853Z AUTO 00000KT 10SM CLR 06/06 A3020 RMK AO2 SLP229 T00610061
                 53003 =
2016-09-25 03:53 METAR KTHV 250753Z AUTO 00000KT 10SM CLR 07/07 A3019 RMK AO2 SLP225 T00720072 =
2016-09-25 02:53 METAR KTHV 250653Z AUTO 00000KT 10SM CLR 07/07 A3019 RMK AO2 SLP226 T00720072 =
2016-09-25 01:53 METAR KTHV 250553Z AUTO 00000KT 10SM CLR 07/07 A3019 RMK AO2 SLP226 T00720072
                 10122 20072 53007 =
2016-09-25 00:53 METAR KTHV 250453Z AUTO 00000KT 10SM CLR 08/08 A3018 RMK AO2 SLP223 T00780078
                 402330078 =
2016-09-24 23:53 METAR KTHV 250353Z AUTO 00000KT 10SM CLR 09/09 A3018 RMK AO2 SLP223 T00890089 =
2016-09-24 22:53 METAR KTHV 250253Z AUTO 00000KT 10SM CLR 09/09 A3017 RMK AO2 SLP220 T00940089
                 51016 =
2016-09-24 21:53 METAR KTHV 250153Z AUTO 00000KT 10SM CLR 10/09 A3016 RMK AO2 SLP216 T01000094 =
2016-09-24 20:53 METAR KTHV 250053Z AUTO 00000KT 10SM CLR 11/10 A3014 RMK AO2 SLP209 T01060100 =
2016-09-24 19:53 METAR KTHV 242353Z AUTO 00000KT 10SM CLR 12/10 A3012 RMK AO2 SLP202 T01220100
                 10233 20122 51013 =
2016-09-24 18:53 METAR KTHV 242253Z AUTO 00000KT 10SM CLR 19/07 A3011 RMK AO2 SLP197 T01890067 =
2016-09-24 17:53 METAR KTHV 242153Z AUTO 01007KT 10SM CLR 22/07 A3010 RMK AO2 SLP192 T02170067 =
2016-09-24 16:53 METAR KTHV 242053Z AUTO 36006KT 10SM CLR 23/09 A3009 RMK AO2 SLP187 T02280089
                 56013 =
2016-09-24 15:53 METAR KTHV 241953Z AUTO 33008KT 10SM CLR 23/12 A3009 RMK AO2 SLP189 T02280117 =
2016-09-24 14:53 METAR KTHV 241853Z AUTO 35008KT 10SM BKN040 22/13 A3011 RMK AO2 SLP195 T02170128
                 =
2016-09-24 13:53 METAR KTHV 241753Z AUTO 01007KT 10SM FEW028 BKN037 21/14 A3012 RMK AO2 SLP201
                 T02110139 10211 20178 58004 =
2016-09-24 12:53 METAR KTHV 241653Z AUTO 04008KT 10SM FEW025 OVC030 19/14 A3015 RMK AO2 SLP209
                 T01890139 =
2016-09-24 12:33 METAR KTHV 241633Z AUTO 04007KT 10SM FEW022 OVC031 19/14 A3015 RMK AO2 T01890139
                 =
2016-09-24 11:53 METAR KTHV 241553Z AUTO 03007KT 10SM OVC024 18/14 A3015 RMK AO2 SLP210 T01830144
                 =

Support USWX by starting your Amazon purchase here.